createdAt,value
2019-05-10T00:03:06.381Z,10.48
2019-05-10T00:08:06.594Z,10.46
2019-05-10T00:13:07.138Z,10.52
2019-05-10T00:18:07.021Z,10.63
2019-05-10T00:23:07.215Z,10.7
2019-05-10T00:28:06.395Z,10.66
2019-05-10T00:33:06.565Z,10.65
2019-05-10T00:37:07.003Z,10.58
2019-05-10T00:42:06.826Z,10.49
2019-05-10T00:47:07.010Z,10.42
2019-05-10T00:52:07.214Z,10.51
2019-05-10T00:57:06.416Z,10.56
2019-05-10T01:02:08.630Z,10.67
2019-05-10T01:07:10.636Z,10.77
2019-05-10T01:11:07.757Z,10.77
2019-05-10T01:17:07.017Z,10.72
2019-05-10T01:21:06.419Z,10.78
2019-05-10T01:26:06.588Z,10.73
2019-05-10T01:31:06.860Z,10.74
2019-05-10T01:36:07.134Z,10.84
2019-05-10T01:41:06.556Z,10.99
2019-05-10T01:46:07.062Z,10.92
2019-05-10T01:50:06.754Z,10.72
2019-05-10T01:55:06.977Z,10.54
2019-05-10T02:00:08.594Z,10.48
2019-05-10T02:05:07.214Z,10.36
2019-05-10T02:10:07.097Z,10.23
2019-05-10T02:15:07.588Z,10.05
2019-05-10T02:20:06.695Z,9.82
2019-05-10T02:25:06.811Z,9.74
2019-05-10T02:29:06.890Z,9.68
2019-05-10T02:35:06.317Z,9.63
2019-05-10T02:39:07.023Z,9.75
2019-05-10T02:44:06.294Z,9.74
2019-05-10T02:49:07.155Z,9.7
2019-05-10T02:54:06.493Z,9.64
2019-05-10T02:59:06.702Z,9.46
2019-05-10T03:04:07.024Z,9.35
2019-05-10T03:09:06.711Z,9.27
2019-05-10T03:13:06.350Z,9.32
2019-05-10T03:18:06.688Z,9.35
2019-05-10T03:23:06.990Z,9.41
2019-05-10T03:28:06.234Z,9.42
2019-05-10T03:33:06.829Z,9.44
2019-05-10T03:38:07.021Z,9.25
2019-05-10T03:42:07.618Z,9.19
2019-05-10T03:43:06.608Z,9.19
2019-05-10T03:48:06.553Z,9.18
2019-05-10T03:52:07.126Z,9.1
2019-05-10T03:57:15.107Z,9.08
2019-05-10T04:02:06.951Z,9.1
2019-05-10T04:07:07.214Z,9.18
2019-05-10T04:12:06.986Z,9.29
2019-05-10T04:17:06.366Z,9.44
2019-05-10T04:21:07.347Z,9.6
2019-05-10T04:26:06.831Z,9.75
2019-05-10T04:31:06.956Z,9.89
2019-05-10T04:36:13.134Z,10.04
2019-05-10T04:41:07.455Z,10.14
2019-05-10T04:46:06.279Z,10.21
2019-05-10T04:51:06.563Z,10.37
2019-05-10T04:56:06.824Z,10.48
2019-05-10T05:00:08.579Z,10.52
2019-05-10T05:05:06.505Z,10.67
2019-05-10T05:10:07.288Z,10.8
2019-05-10T05:15:07.697Z,10.87
2019-05-10T05:20:06.816Z,11.1
2019-05-10T05:25:07.035Z,11.46
2019-05-10T05:30:07.617Z,11.76
2019-05-10T05:34:07.201Z,11.82
2019-05-10T05:39:06.804Z,12.08
2019-05-10T05:44:07.091Z,12.25
2019-05-10T05:49:07.071Z,12.43
2019-05-10T05:54:06.389Z,12.46
2019-05-10T05:59:09.254Z,12.75
2019-05-10T06:04:12.670Z,13.03
2019-05-10T06:08:24.587Z,13.78
2019-05-10T06:14:12.715Z,14.05
2019-05-10T06:18:12.044Z,14.49
2019-05-10T06:23:07.568Z,14.01
2019-05-10T06:28:26.765Z,14.62
2019-05-10T06:33:13.491Z,13.81
2019-05-10T06:38:06.713Z,13.77
2019-05-10T06:43:13.241Z,13.63
2019-05-10T06:47:11.159Z,13.55
2019-05-10T06:48:06.242Z,13.55
2019-05-10T06:52:06.674Z,13.29
2019-05-10T06:57:17.294Z,13.16
2019-05-10T07:02:06.750Z,13.11
2019-05-10T07:07:20.273Z,12.97
2019-05-10T07:12:15.126Z,12.75
2019-05-10T07:17:06.743Z,12.73
2019-05-10T07:21:09.121Z,12.85
2019-05-10T07:22:07.055Z,12.85
2019-05-10T07:26:10.282Z,12.51
2019-05-10T07:31:06.662Z,12.46
2019-05-10T07:36:17.124Z,12.14
2019-05-10T07:41:06.947Z,11.86
2019-05-10T07:46:09.395Z,11.64
2019-05-10T07:51:06.598Z,11.45
2019-05-10T07:55:10.906Z,11.28
2019-05-10T08:00:09.213Z,11.24
2019-05-10T08:05:15.196Z,11.2
2019-05-10T08:10:09.069Z,11.24
2019-05-10T08:15:09.017Z,11.37
2019-05-10T08:20:19.859Z,11.45
2019-05-10T08:25:07.000Z,11.79
2019-05-10T08:30:29.059Z,11.99
2019-05-10T08:34:06.884Z,12.07
2019-05-10T08:39:13.843Z,11.93
2019-05-10T08:44:21.086Z,11.69
2019-05-10T08:49:06.534Z,11.94
2019-05-10T08:54:06.780Z,12.56
2019-05-10T08:59:15.713Z,13.15
2019-05-10T09:04:11.595Z,13.91
2019-05-10T09:08:19.809Z,14.68
2019-05-10T09:09:08.811Z,14.68
2019-05-10T09:13:06.291Z,14.98
2019-05-10T09:18:07.951Z,15.15
2019-05-10T09:23:15.032Z,15.48
2019-05-10T09:28:16.598Z,14.36
2019-05-10T09:33:14.187Z,13.79
2019-05-10T09:38:06.834Z,13.48
2019-05-10T09:43:12.422Z,13.29
2019-05-10T09:47:07.127Z,13.48
2019-05-10T09:52:18.107Z,14.82
2019-05-10T09:57:08.672Z,15.23
2019-05-10T10:02:18.660Z,15.15
2019-05-10T10:07:06.946Z,14.39
2019-05-10T10:12:07.370Z,14.3
2019-05-10T10:16:14.837Z,14.26
2019-05-10T10:21:06.400Z,14.2
2019-05-10T10:26:07.657Z,14.27
2019-05-10T10:31:08.790Z,14.65
2019-05-10T10:36:10.592Z,14.88
2019-05-10T10:41:08.645Z,14.85
2019-05-10T10:46:12.783Z,14.79
2019-05-10T10:50:13.334Z,14.97
2019-05-10T10:55:13.465Z,15.23
2019-05-10T11:00:08.629Z,15.39
2019-05-10T11:05:06.372Z,15.33
2019-05-10T11:10:19.849Z,15.51
2019-05-10T11:15:16.305Z,15.28
2019-05-10T11:20:11.611Z,15.63
2019-05-10T11:24:18.319Z,15.39
2019-05-10T11:25:12.809Z,15.39
2019-05-10T11:29:06.394Z,15.54
2019-05-10T11:34:06.759Z,15.66
2019-05-10T11:39:26.582Z,15.74
2019-05-10T11:44:11.987Z,15.99
2019-05-10T11:49:07.121Z,16.1
2019-05-10T11:53:17.160Z,16.14
2019-05-10T11:59:05.937Z,16.17
2019-05-10T12:03:15.692Z,16.1
2019-05-10T12:08:06.347Z,16.51
2019-05-10T12:18:06.663Z,15.84
2019-05-10T12:22:07.626Z,15.7
2019-05-10T12:28:06.248Z,15.69
2019-05-10T12:32:06.662Z,15.6
2019-05-10T12:37:08.727Z,15.85
2019-05-10T12:42:06.671Z,16.02
2019-05-10T12:47:06.572Z,16.92
2019-05-10T12:52:16.195Z,17.08
2019-05-10T12:56:06.747Z,16.64
2019-05-10T13:01:06.979Z,16.31
2019-05-10T13:06:06.855Z,16.08
2019-05-10T13:11:06.532Z,16
2019-05-10T13:16:12.098Z,15.91
2019-05-10T13:26:06.880Z,16.69
2019-05-10T13:30:08.579Z,15.81
2019-05-10T13:31:07.740Z,15.81
2019-05-10T13:35:06.618Z,15.07
2019-05-10T13:40:08.675Z,15.21
2019-05-10T13:45:08.877Z,15.31
2019-05-10T13:50:07.131Z,15.88
2019-05-10T13:55:06.797Z,17.05
2019-05-10T14:00:08.930Z,16.32
2019-05-10T14:04:06.780Z,15.51
2019-05-10T14:09:06.911Z,14.87
2019-05-10T14:14:07.367Z,14.59
2019-05-10T14:19:06.368Z,14.47
2019-05-10T14:24:15.035Z,14.59
2019-05-10T14:29:07.023Z,14.94
2019-05-10T14:38:10.542Z,16.75
2019-05-10T14:43:06.439Z,17.4
2019-05-10T14:48:07.095Z,18.43
2019-05-10T14:53:07.099Z,16.91
2019-05-10T14:58:06.913Z,16.07
2019-05-10T15:03:07.029Z,15.6
2019-05-10T15:07:16.544Z,15.31
2019-05-10T15:08:06.366Z,15.31
2019-05-10T15:12:15.864Z,15.41
2019-05-10T15:17:06.964Z,15.32
2019-05-10T15:22:07.208Z,18.27
2019-05-10T15:27:07.164Z,18.38
2019-05-10T15:32:06.363Z,18.38
2019-05-10T15:37:10.697Z,18.23
2019-05-10T15:41:07.119Z,18.15
2019-05-10T15:46:06.813Z,18.69
2019-05-10T15:51:18.479Z,18.05
2019-05-10T15:56:06.610Z,17
2019-05-10T16:01:07.067Z,16.11
2019-05-10T16:06:06.246Z,17.03
2019-05-10T16:10:07.521Z,17.11
2019-05-10T16:15:07.184Z,16.1
2019-05-10T16:20:06.986Z,14.99
2019-05-10T16:25:06.842Z,14.62
2019-05-10T16:30:20.238Z,15.21
2019-05-10T16:35:14.525Z,14.91
2019-05-10T16:40:07.153Z,14.85
2019-05-10T16:44:07.314Z,14.6
2019-05-10T16:49:15.362Z,14.33
2019-05-10T16:54:19.086Z,14.06
2019-05-10T16:59:06.614Z,14.34
2019-05-10T17:04:07.077Z,15.38
2019-05-10T17:09:19.762Z,14.84
2019-05-10T17:14:07.111Z,14.77
2019-05-10T17:19:06.614Z,14.49
2019-05-10T17:23:11.368Z,14.11
2019-05-10T17:28:06.606Z,13.58
2019-05-10T17:33:06.629Z,12.59
2019-05-10T17:38:16.268Z,12.08
2019-05-10T17:43:06.852Z,11.39
2019-05-10T17:48:10.183Z,10.87
2019-05-10T17:52:08.006Z,10.58
2019-05-10T17:57:18.451Z,10.4
2019-05-10T18:02:06.879Z,10.26
2019-05-10T18:07:07.299Z,10.16
2019-05-10T18:12:07.123Z,10.13
2019-05-10T18:17:08.080Z,10.13
2019-05-10T18:21:06.531Z,10.13
2019-05-10T18:22:07.286Z,10.13
2019-05-10T18:26:06.538Z,10.13
2019-05-10T18:31:06.890Z,10.1
2019-05-10T18:36:07.037Z,10.1
2019-05-10T18:41:11.809Z,10.09
2019-05-10T18:46:07.327Z,9.98
2019-05-10T18:51:06.572Z,9.89
2019-05-10T18:55:07.500Z,9.81
2019-05-10T18:56:06.941Z,9.81
2019-05-10T19:00:09.025Z,9.74
2019-05-10T19:05:06.907Z,9.62
2019-05-10T19:10:06.513Z,9.51
2019-05-10T19:15:15.471Z,9.36
2019-05-10T19:20:15.992Z,9.16
2019-05-10T19:25:14.835Z,9.04
2019-05-10T19:29:07.701Z,8.98
2019-05-10T19:34:17.198Z,8.86
2019-05-10T19:39:07.926Z,8.79
2019-05-10T19:44:07.008Z,8.73
2019-05-10T19:49:15.814Z,8.49
2019-05-10T19:54:07.158Z,8.22
2019-05-10T19:59:13.956Z,7.98
2019-05-10T20:04:09.756Z,7.64
2019-05-10T20:09:07.415Z,7.53
2019-05-10T20:13:07.623Z,7.49
2019-05-10T20:18:07.545Z,7.48
2019-05-10T20:23:07.183Z,7.34
2019-05-10T20:28:07.452Z,7.35
2019-05-10T20:33:07.115Z,7.4
2019-05-10T20:38:07.282Z,7.17
2019-05-10T20:43:06.880Z,6.96
2019-05-10T20:47:07.099Z,6.91
2019-05-10T20:48:07.434Z,6.91
2019-05-10T20:52:07.122Z,6.91
2019-05-10T20:57:06.514Z,6.67
2019-05-10T21:02:06.703Z,6.55
2019-05-10T21:07:08.092Z,6.41
2019-05-10T21:12:07.240Z,6.79
2019-05-10T21:17:06.753Z,7.13
2019-05-10T21:22:06.982Z,7.32
2019-05-10T21:26:06.992Z,7.62
2019-05-10T21:31:06.416Z,7.63
2019-05-10T21:36:06.603Z,7.1
2019-05-10T21:41:07.127Z,6.75
2019-05-10T21:46:07.197Z,6.65
2019-05-10T21:51:06.471Z,6.23
2019-05-10T21:56:06.923Z,5.96
2019-05-10T22:00:08.524Z,5.98
2019-05-10T22:05:07.172Z,5.81
2019-05-10T22:10:07.001Z,5.5
2019-05-10T22:15:08.454Z,5.19
2019-05-10T22:20:06.271Z,5.45
2019-05-10T22:25:06.430Z,6.46
2019-05-10T22:30:09.945Z,6.74
2019-05-10T22:34:07.458Z,6.28
2019-05-10T22:39:08.533Z,5.77
2019-05-10T22:44:06.927Z,5.57
2019-05-10T22:49:06.922Z,4.35
2019-05-10T22:54:07.051Z,3.95
2019-05-10T22:59:07.242Z,3.78
2019-05-10T23:03:07.990Z,3.99
2019-05-10T23:08:07.124Z,4.19
2019-05-10T23:13:06.703Z,4.15
2019-05-10T23:18:06.682Z,4.16
2019-05-10T23:23:06.855Z,4.19
2019-05-10T23:28:07.049Z,4.3
2019-05-10T23:33:07.114Z,4.29
2019-05-10T23:37:07.422Z,4.28
2019-05-10T23:38:06.821Z,4.28
2019-05-10T23:42:06.236Z,4.13
2019-05-10T23:47:06.258Z,4.16
2019-05-10T23:52:06.642Z,4.1
2019-05-10T23:57:06.347Z,4.12
